Time;durP1;ratioP1;P1;durP2;ratioP2;P2;SDS_P1;SDS_P2;PMS_P1;PMS_P2;Temp;Humidity;BMP_temperature;BMP_pressure;BME280_temperature;BME280_humidity;BME280_pressure;Samples;Min_cycle;Max_cycle;Signal;HPM_P1;HPM_P2
2021/01/16 00:01:39;;;;;;;15.50;6.60;;;;;;;-6.30;57.68;100068.52;1749749;81;21119;-64
2021/01/16 00:04:09;;;;;;;17.32;8.98;;;;;;;-6.32;57.67;100064.28;1778598;80;21192;-63
2021/01/16 00:06:39;;;;;;;16.87;7.92;;;;;;;-6.31;57.83;100066.81;1706598;82;21206;-63
2021/01/16 00:09:06;;;;;;;14.13;7.90;;;;;;;-6.25;57.79;100062.89;1693791;83;21194;-63
2021/01/16 00:11:34;;;;;;;15.58;7.75;;;;;;;-6.12;57.66;100058.39;1755205;79;21161;-62
2021/01/16 00:14:02;;;;;;;14.20;8.43;;;;;;;-6.06;57.30;100063.86;1755758;79;21204;-63
2021/01/16 00:16:30;;;;;;;15.08;7.87;;;;;;;-6.08;57.12;100056.20;1762018;79;22131;-62
2021/01/16 00:29:55;;;;;;;22.93;12.13;;;;;;;-5.95;57.63;100053.39;1780318;77;31967;-61
2021/01/16 00:54:04;;;;;;;14.30;7.80;;;;;;;-5.46;56.12;100044.36;1872543;75;22694;-63
2021/01/16 00:56:35;;;;;;;17.52;8.85;;;;;;;-5.54;56.20;100044.94;1810074;77;21138;-62
2021/01/16 00:59:04;;;;;;;13.88;7.50;;;;;;;-5.50;56.39;100035.47;1837346;77;21166;-63
2021/01/16 01:01:39;;;;;;;14.87;7.35;;;;;;;-5.45;56.47;100038.33;1840769;77;21650;-63
2021/01/16 01:04:08;;;;;;;19.10;8.18;;;;;;;-5.44;56.43;100034.91;1827998;76;21143;-62
2021/01/16 01:06:44;;;;;;;17.02;8.78;;;;;;;-5.38;56.12;100033.09;1763028;79;22409;-62
2021/01/16 01:09:13;;;;;;;16.75;9.13;;;;;;;-5.46;56.07;100040.51;1731557;81;21192;-62
2021/01/16 01:11:40;;;;;;;14.20;7.80;;;;;;;-5.58;56.25;100030.51;1734394;81;21253;-62
2021/01/16 01:14:08;;;;;;;11.73;7.75;;;;;;;-5.65;56.43;100037.88;1736195;82;21180;-62
2021/01/16 01:16:35;;;;;;;14.45;8.50;;;;;;;-5.76;56.69;100030.86;1735177;82;21117;-62
2021/01/16 01:19:04;;;;;;;17.90;10.80;;;;;;;-5.87;56.85;100033.59;1731516;82;21116;-62
2021/01/16 01:21:31;;;;;;;21.60;11.40;;;;;;;-5.92;57.30;100039.24;1735271;81;21121;-62
2021/01/16 01:23:58;;;;;;;17.42;10.75;;;;;;;-6.04;56.70;100045.47;1732505;81;21200;-62
2021/01/16 01:26:27;;;;;;;24.55;12.25;;;;;;;-6.21;56.87;100046.59;1735618;81;21188;-62
2021/01/16 01:28:55;;;;;;;18.45;10.05;;;;;;;-6.32;56.82;100046.36;1701944;82;21164;-62
2021/01/16 01:31:23;;;;;;;16.67;9.05;;;;;;;-6.54;56.57;100053.95;1707506;82;21207;-62
2021/01/16 01:33:53;;;;;;;16.23;8.08;;;;;;;-6.79;56.88;100057.72;1736609;81;21121;-62
2021/01/16 01:36:20;;;;;;;15.43;7.25;;;;;;;-7.07;57.82;100055.55;1734211;82;21274;-62
2021/01/16 01:38:48;;;;;;;15.32;7.90;;;;;;;-7.24;58.01;100050.66;1696851;83;21193;-62
2021/01/16 01:41:16;;;;;;;15.58;6.42;;;;;;;-7.35;58.27;100053.33;1734323;81;21191;-63
2021/01/16 01:43:43;;;;;;;11.90;7.03;;;;;;;-7.50;58.80;100058.22;1731905;82;21216;-63
2021/01/16 01:46:11;;;;;;;14.63;7.22;;;;;;;-7.66;59.25;100054.13;1733558;82;21741;-62
2021/01/16 01:48:38;;;;;;;10.85;5.50;;;;;;;-7.80;60.38;100059.80;1735140;82;21197;-64
2021/01/16 01:51:09;;;;;;;13.18;5.60;;;;;;;-7.86;60.15;100057.72;1738786;81;21172;-63
2021/01/16 01:53:38;;;;;;;13.05;6.65;;;;;;;-7.94;60.95;100063.77;1731566;82;21212;-63
2021/01/16 01:56:06;;;;;;;14.05;7.47;;;;;;;-8.06;61.95;100060.47;1707272;82;21227;-63
2021/01/16 01:58:34;;;;;;;14.07;5.30;;;;;;;-8.18;61.92;100063.13;1737670;82;21212;-63
2021/01/16 02:01:02;;;;;;;14.47;7.05;;;;;;;-8.24;62.18;100061.90;1705294;82;21116;-63
2021/01/16 02:03:29;;;;;;;9.68;5.58;;;;;;;-8.26;61.96;100070.01;1740206;82;21153;-63
2021/01/16 02:05:57;;;;;;;12.40;5.67;;;;;;;-8.29;61.72;100078.52;1746315;81;21189;-62
2021/01/16 02:08:25;;;;;;;13.88;7.08;;;;;;;-8.30;61.34;100076.84;1730813;82;21194;-62
2021/01/16 02:10:52;;;;;;;15.32;6.80;;;;;;;-8.34;61.63;100078.16;1734551;82;21180;-62
2021/01/16 02:13:20;;;;;;;10.08;4.95;;;;;;;-8.40;60.96;100081.17;1730118;82;21210;-62
2021/01/16 02:16:11;;;;;;;13.10;6.08;;;;;;;-8.43;61.34;100080.38;1711179;82;21231;-62
2021/01/16 02:18:46;;;;;;;12.53;7.37;;;;;;;-8.42;61.63;100089.71;1689929;83;21157;-62
2021/01/16 02:21:19;;;;;;;17.45;6.80;;;;;;;-8.40;61.16;100088.83;1738524;82;21204;-62
2021/01/16 02:24:12;;;;;;;14.65;6.25;;;;;;;-8.33;61.18;100093.89;1738375;82;21719;-63
2021/01/16 02:27:11;;;;;;;13.28;6.28;;;;;;;-8.29;60.40;100097.66;1735805;82;21312;-63
2021/01/16 02:29:39;;;;;;;9.55;5.53;;;;;;;-8.34;59.61;100099.84;1699771;82;21171;-61
2021/01/16 02:32:07;;;;;;;10.20;4.75;;;;;;;-8.42;59.42;100092.27;1730641;82;21192;-61
2021/01/16 02:34:39;;;;;;;13.50;6.55;;;;;;;-8.43;59.51;100088.03;1709237;82;21152;-62
2021/01/16 02:37:34;;;;;;;16.90;7.50;;;;;;;-8.37;59.41;100079.45;1739850;82;21149;-62
2021/01/16 02:40:07;;;;;;;;;;;;;;;-8.34;59.17;100087.08;1740383;82;21199;-62
2021/01/16 02:42:51;;;;;;;10.63;4.78;;;;;;;-8.32;58.71;100095.56;1685219;82;20300;-62
2021/01/16 02:45:28;;;;;;;10.08;5.33;;;;;;;-8.32;59.20;100095.56;1707670;82;21596;-62
2021/01/16 02:48:25;;;;;;;11.22;5.85;;;;;;;-8.29;58.95;100088.73;1734191;82;21297;-63
2021/01/16 02:50:54;;;;;;;13.58;5.40;;;;;;;-8.29;58.59;100095.55;1733097;82;21184;-62
2021/01/16 02:53:23;;;;;;;9.75;5.45;;;;;;;-8.27;58.67;100101.08;1736482;82;21206;-61
2021/01/16 02:55:52;;;;;;;13.40;5.85;;;;;;;-8.26;58.47;100110.41;1737241;82;21200;-61
2021/01/16 02:58:20;;;;;;;11.88;5.28;;;;;;;-8.23;58.18;100104.01;1732903;82;21117;-62
2021/01/16 03:00:48;;;;;;;10.65;4.72;;;;;;;-8.17;58.33;100100.98;1732920;82;21592;-62
2021/01/16 03:03:15;;;;;;;10.25;5.80;;;;;;;-8.12;57.45;100094.14;1734579;82;21139;-62
2021/01/16 03:05:43;;;;;;;12.82;6.25;;;;;;;-8.08;57.32;100096.66;1733213;81;22212;-62
2021/01/16 03:08:10;;;;;;;9.65;5.53;;;;;;;-8.06;57.13;100098.77;1707497;82;21148;-62
2021/01/16 03:10:37;;;;;;;10.50;5.40;;;;;;;-8.03;56.92;100106.84;1737013;82;21172;-62
2021/01/16 03:13:06;;;;;;;11.57;5.62;;;;;;;-8.05;56.69;100107.30;1735891;82;21167;-63
2021/01/16 03:15:33;;;;;;;10.88;5.33;;;;;;;-8.09;55.68;100102.61;1730718;82;21571;-63
2021/01/16 03:18:00;;;;;;;13.80;6.00;;;;;;;-8.10;55.61;100109.01;1711190;82;22365;-63
2021/01/16 03:20:30;;;;;;;10.48;4.87;;;;;;;-8.18;54.47;100100.16;1731910;82;21224;-62
2021/01/16 03:23:00;;;;;;;11.60;5.12;;;;;;;-8.33;52.93;100098.56;1737560;82;21182;-62
2021/01/16 03:25:30;;;;;;;10.48;5.20;;;;;;;-8.50;52.08;100098.71;1734616;82;21131;-62
2021/01/16 03:27:59;;;;;;;15.48;6.65;;;;;;;-8.63;52.55;100100.92;1733576;82;21184;-62
2021/01/16 03:30:27;;;;;;;10.78;4.87;;;;;;;-8.69;52.43;100105.64;1735370;82;21730;-62
2021/01/16 03:32:55;;;;;;;12.07;5.05;;;;;;;-8.73;52.23;100109.05;1700423;82;21144;-62
2021/01/16 03:35:25;;;;;;;9.43;5.08;;;;;;;-8.75;52.25;100108.66;1731099;82;21133;-62
2021/01/16 03:37:55;;;;;;;10.18;4.67;;;;;;;-8.79;51.75;100107.83;1734418;82;21176;-63
2021/01/16 03:40:25;;;;;;;10.25;3.62;;;;;;;-8.85;51.93;100099.77;1733269;82;21470;-62
2021/01/16 03:42:54;;;;;;;12.98;5.00;;;;;;;-8.91;51.94;100108.71;1737150;82;21216;-62
2021/01/16 03:45:23;;;;;;;11.53;5.83;;;;;;;-8.96;52.09;100114.27;1734362;82;21131;-62
2021/01/16 03:47:51;;;;;;;11.90;4.33;;;;;;;-9.03;51.84;100114.72;1736204;82;21124;-62
2021/01/16 03:50:20;;;;;;;10.85;4.67;;;;;;;-9.06;52.18;100113.89;1734557;82;21196;-62
2021/01/16 03:52:49;;;;;;;12.35;4.47;;;;;;;-9.09;52.17;100111.34;1735753;81;21124;-63
2021/01/16 03:55:16;;;;;;;9.15;4.40;;;;;;;-9.13;51.63;100115.61;1708370;82;22452;-63
2021/01/16 03:57:43;;;;;;;10.25;4.42;;;;;;;-9.20;51.87;100127.53;1708174;82;21169;-62
2021/01/16 04:00:11;;;;;;;10.15;4.55;;;;;;;-9.30;52.12;100125.03;1736817;82;21192;-62
2021/01/16 04:02:39;;;;;;;8.15;3.37;;;;;;;-9.35;52.64;100127.14;1736764;81;21172;-62
2021/01/16 04:05:08;;;;;;;15.03;5.80;;;;;;;-9.30;52.33;100135.22;1727032;82;21204;-62
2021/01/16 04:07:35;;;;;;;9.98;4.20;;;;;;;-9.32;51.56;100136.50;1705701;81;21176;-62
2021/01/16 04:10:05;;;;;;;12.35;5.87;;;;;;;-9.34;51.60;100152.22;1740726;80;21124;-62
2021/01/16 04:12:33;;;;;;;13.50;5.35;;;;;;;-9.40;51.48;100149.68;1705395;81;21143;-60
2021/01/16 04:15:02;;;;;;;19.37;4.83;;;;;;;-9.41;51.96;100162.02;1739216;81;21188;-61
2021/01/16 04:17:30;;;;;;;10.60;4.35;;;;;;;-9.46;52.15;100165.84;1715066;81;21599;-60
2021/01/16 04:19:59;;;;;;;10.28;5.25;;;;;;;-9.49;52.13;100165.84;1739509;81;21712;-61
2021/01/16 04:22:27;;;;;;;11.10;4.22;;;;;;;-9.48;52.28;100157.36;1732596;81;21160;-61
2021/01/16 04:24:54;;;;;;;10.90;3.62;;;;;;;-9.49;52.08;100157.36;1743702;81;21140;-61
2021/01/16 04:27:22;;;;;;;12.75;5.47;;;;;;;-9.57;52.05;100158.63;1720687;81;21093;-61
2021/01/16 04:29:49;;;;;;;10.75;5.45;;;;;;;-9.75;52.11;100151.85;1714982;81;21501;-60
2021/01/16 04:32:17;;;;;;;11.15;4.58;;;;;;;-9.92;51.57;100170.55;1744422;81;21892;-59
2021/01/16 04:34:45;;;;;;;11.65;4.42;;;;;;;-10.06;51.55;100167.14;1744213;81;21215;-60
2021/01/16 04:37:12;;;;;;;9.33;3.92;;;;;;;-10.25;51.56;100167.95;1717630;81;21164;-60
2021/01/16 04:39:39;;;;;;;10.93;5.05;;;;;;;-10.40;51.89;100177.75;1704847;81;21139;-60
2021/01/16 04:42:09;;;;;;;10.88;4.53;;;;;;;-10.49;52.31;100178.14;1743522;81;21185;-60
2021/01/16 04:44:36;;;;;;;11.50;5.80;;;;;;;-10.57;52.21;100187.84;1739295;81;21418;-60
2021/01/16 05:00:17;;;;;;;11.20;4.03;;;;;;;-11.23;51.84;100192.23;1781540;77;22090;-59
2021/01/16 05:02:44;;;;;;;10.25;4.40;;;;;;;-11.31;51.95;100191.33;1727060;80;21207;-59
2021/01/16 05:15:53;;;;;;;10.10;4.60;;;;;;;-11.56;51.84;100191.20;1866864;74;21993;-61
2021/01/16 05:18:22;;;;;;;14.33;6.55;;;;;;;-11.64;51.78;100196.20;1825743;77;21158;-60
2021/01/16 05:31:31;;;;;;;9.53;4.25;;;;;;;-11.72;52.18;100214.77;1813971;77;22289;-60
2021/01/16 05:33:58;;;;;;;15.23;3.33;;;;;;;-11.79;52.29;100217.24;1792750;78;21166;-59
2021/01/16 05:47:24;;;;;;;15.70;4.30;;;;;;;-11.90;52.59;100219.26;1746414;76;22188;-61
2021/01/16 05:49:52;;;;;;;10.70;5.47;;;;;;;-12.00;52.56;100223.42;1702750;82;21219;-59
2021/01/16 05:52:23;;;;;;;9.45;5.55;;;;;;;-12.02;52.57;100217.50;1700348;81;23063;-60
2021/01/16 05:54:50;;;;;;;11.88;4.80;;;;;;;-12.02;52.57;100227.25;1687575;81;21545;-60
2021/01/16 06:07:58;;;;;;;10.82;5.33;;;;;;;-12.04;53.23;100234.40;1792417;78;22977;-58
2021/01/16 06:10:29;;;;;;;12.70;5.22;;;;;;;-12.09;53.23;100241.95;1701723;82;21510;-57
2021/01/16 06:13:15;;;;;;;14.23;5.35;;;;;;;-12.01;53.30;100246.69;1781751;79;22650;-58
2021/01/16 06:15:48;;;;;;;10.00;4.15;;;;;;;-12.00;53.27;100260.22;1740829;80;21140;-59
2021/01/16 06:18:40;;;;;;;16.45;5.65;;;;;;;-11.91;53.07;100268.36;1764692;80;21781;-59
2021/01/16 06:21:07;;;;;;;10.23;5.15;;;;;;;-11.89;52.96;100276.80;1762034;80;21254;-59
2021/01/16 06:23:35;;;;;;;8.50;5.03;;;;;;;-11.89;52.89;100278.06;1707517;80;21195;-58
2021/01/16 06:29:04;;;;;;;6.83;3.20;;;;;;;-11.93;52.88;100283.96;1707772;79;21075;-59
2021/01/16 06:31:33;;;;;;;13.80;4.95;;;;;;;-12.00;52.57;100290.66;1698642;82;21212;-59
2021/01/16 06:34:05;;;;;;;14.10;6.30;;;;;;;-12.12;52.49;100290.55;1708928;83;21704;-59
2021/01/16 06:36:34;;;;;;;13.30;6.25;;;;;;;-12.21;52.57;100303.55;1681938;84;21240;-59
2021/01/16 06:39:09;;;;;;;15.93;4.62;;;;;;;-12.29;52.59;100301.34;1699866;82;21710;-60
2021/01/16 06:41:38;;;;;;;14.73;6.25;;;;;;;-12.32;52.53;100303.88;1706793;82;21189;-60
2021/01/16 06:57:52;;;;;;;13.35;5.33;;;;;;;-11.00;49.01;100316.04;1778761;79;22083;-59
2021/01/16 07:00:22;;;;;;;10.43;5.58;;;;;;;-10.95;48.76;100325.81;1725324;81;21186;-61
2021/01/16 07:02:50;;;;;;;13.18;5.25;;;;;;;-11.13;48.16;100328.64;1743029;81;22381;-61
2021/01/16 07:16:17;;;;;;;13.27;6.30;;;;;;;-12.16;49.24;100342.50;1748432;79;33000;-60
2021/01/16 07:18:45;;;;;;;14.50;5.92;;;;;;;-12.11;49.20;100345.53;1715047;81;21253;-60
2021/01/16 07:21:31;;;;;;;9.80;5.03;;;;;;;-11.98;48.90;100349.48;1872967;75;21923;-59
2021/01/16 07:23:58;;;;;;;10.18;3.83;;;;;;;-12.09;49.02;100347.66;1754640;80;21203;-61
2021/01/16 07:26:26;;;;;;;14.33;4.67;;;;;;;-12.16;48.76;100351.38;1798649;77;21460;-59
2021/01/16 07:28:55;;;;;;;9.30;4.30;;;;;;;-12.26;48.88;100357.19;1786423;78;22611;-58
2021/01/16 07:31:22;;;;;;;10.72;3.60;;;;;;;-12.30;49.20;100360.52;1759019;79;21241;-60
2021/01/16 07:33:50;;;;;;;9.43;4.42;;;;;;;-12.33;48.59;100361.75;1780858;79;21194;-59
2021/01/16 07:36:21;;;;;;;10.15;3.67;;;;;;;-12.44;48.91;100369.63;1731394;79;21126;-59
2021/01/16 07:38:48;;;;;;;14.40;5.60;;;;;;;-12.52;49.12;100373.34;1798066;79;21198;-59
2021/01/16 07:41:16;;;;;;;8.53;4.22;;;;;;;-12.57;49.03;100364.40;1752491;79;21689;-60
2021/01/16 07:43:51;;;;;;;10.23;3.90;;;;;;;-12.53;49.05;100360.22;1713694;79;21025;-60
2021/01/16 07:46:20;;;;;;;9.10;4.70;;;;;;;-12.59;48.95;100371.14;1761764;78;21223;-62
2021/01/16 07:48:56;;;;;;;8.28;3.50;;;;;;;-12.71;49.17;100368.02;1786508;80;21228;-60
2021/01/16 07:51:32;;;;;;;13.10;5.70;;;;;;;-12.73;49.44;100370.08;1764425;79;21207;-60
2021/01/16 07:54:12;;;;;;;12.03;5.17;;;;;;;-12.75;49.36;100367.52;1794884;78;21212;-60
2021/01/16 07:56:43;;;;;;;9.63;5.20;;;;;;;-12.70;49.12;100375.20;1795541;77;21635;-62
2021/01/16 07:59:19;;;;;;;11.80;4.42;;;;;;;-12.69;48.93;100379.45;1755810;80;21199;-60
2021/01/16 08:02:27;;;;;;;11.38;4.22;;;;;;;-12.73;49.28;100375.15;1802656;78;21624;-59
2021/01/16 08:05:09;;;;;;;12.05;4.40;;;;;;;-12.68;49.00;100381.12;1782785;77;21210;-60
2021/01/16 08:08:10;;;;;;;16.20;5.05;;;;;;;-12.65;48.92;100381.61;1756984;78;21510;-60
2021/01/16 08:10:40;;;;;;;12.37;5.65;;;;;;;-12.63;48.94;100381.20;1777354;78;21178;-61
2021/01/16 08:13:10;;;;;;;9.68;4.92;;;;;;;-12.59;48.50;100384.20;1748592;78;21223;-60
2021/01/16 08:15:41;;;;;;;10.48;6.22;;;;;;;-12.55;48.71;100374.14;1783210;78;21199;-60
2021/01/16 08:18:12;;;;;;;11.10;3.80;;;;;;;-12.46;48.74;100378.90;1779780;78;21199;-61
2021/01/16 08:20:42;;;;;;;10.13;4.92;;;;;;;-12.42;48.26;100381.50;1744275;80;21151;-60
2021/01/16 08:23:11;;;;;;;11.43;4.53;;;;;;;-12.49;48.05;100378.43;1745817;81;21227;-62
2021/01/16 08:25:39;;;;;;;14.07;5.35;;;;;;;-12.55;48.28;100369.50;1803077;78;21512;-59
2021/01/16 08:28:07;;;;;;;12.03;5.05;;;;;;;-12.57;48.51;100386.37;1794026;78;21183;-62
2021/01/16 08:30:34;;;;;;;11.53;4.58;;;;;;;-12.57;48.66;100370.73;1721311;80;21223;-60
2021/01/16 08:33:08;;;;;;;13.60;7.17;;;;;;;-12.50;48.67;100384.77;1812248;78;21607;-60
2021/01/16 08:35:43;;;;;;;8.23;3.45;;;;;;;-12.44;48.48;100381.03;1775413;79;21394;-60
2021/01/16 08:38:18;;;;;;;8.60;3.58;;;;;;;-12.42;48.82;100374.30;1795298;78;21179;-60
2021/01/16 08:41:04;;;;;;;12.63;5.37;;;;;;;-12.42;48.98;100385.70;1770063;78;21200;-60
2021/01/16 08:43:43;;;;;;;8.85;4.97;;;;;;;-12.45;48.96;100376.81;1785634;78;21640;-59
2021/01/16 08:46:32;;;;;;;11.68;5.15;;;;;;;-12.46;48.87;100379.74;1808274;78;21539;-59
2021/01/16 08:49:10;;;;;;;15.95;5.90;;;;;;;-12.47;48.32;100376.80;1772847;79;21200;-60
2021/01/16 08:51:45;;;;;;;12.28;4.55;;;;;;;-12.45;48.30;100371.74;1802883;78;21167;-60
2021/01/16 08:54:21;;;;;;;12.40;5.15;;;;;;;-12.39;48.11;100379.02;1791949;78;21169;-61
2021/01/16 08:56:52;;;;;;;10.28;3.50;;;;;;;-12.33;48.09;100382.03;1748058;80;21237;-60
2021/01/16 08:59:25;;;;;;;11.50;4.00;;;;;;;-12.34;47.69;100391.73;1775888;78;21244;-60
2021/01/16 09:02:16;;;;;;;10.10;5.40;;;;;;;-12.46;47.84;100383.55;1783768;78;21198;-60
2021/01/16 09:04:46;;;;;;;13.13;5.78;;;;;;;-12.45;47.85;100385.69;1761410;79;21200;-60
2021/01/16 09:07:24;;;;;;;8.98;4.53;;;;;;;-12.38;47.86;100380.70;1787455;78;21186;-59
2021/01/16 09:10:12;;;;;;;8.45;4.20;;;;;;;-12.30;47.47;100398.56;1784606;79;21198;-59
2021/01/16 09:12:40;;;;;;;9.78;4.10;;;;;;;-12.35;47.61;100406.11;1748352;81;21215;-60
2021/01/16 09:15:39;;;;;;;9.95;3.60;;;;;;;-12.47;47.47;100413.55;1743997;81;21199;-59
2021/01/16 09:18:12;;;;;;;9.78;4.70;;;;;;;-12.60;47.53;100398.57;1713935;81;21223;-58
2021/01/16 09:20:56;;;;;;;7.85;3.35;;;;;;;-12.72;47.69;100397.98;1745685;81;21238;-60
2021/01/16 09:23:37;;;;;;;23.45;5.45;;;;;;;-12.78;47.69;100392.81;1719779;81;21260;-60
2021/01/16 09:26:10;;;;;;;8.58;3.60;;;;;;;-12.78;48.08;100386.90;1742762;81;21140;-59
2021/01/16 09:28:51;;;;;;;11.33;5.03;;;;;;;-12.72;47.78;100395.87;1715921;81;21573;-60
2021/01/16 09:31:41;;;;;;;7.83;3.85;;;;;;;-12.72;47.82;100397.98;1721663;81;21764;-60
2021/01/16 09:34:20;;;;;;;12.58;5.95;;;;;;;-12.61;47.80;100395.59;1745405;80;21231;-58
2021/01/16 09:36:56;;;;;;;9.65;3.62;;;;;;;-12.57;47.43;100397.35;1718395;81;21238;-59
2021/01/16 09:39:33;;;;;;;9.55;4.72;;;;;;;-12.52;47.46;100391.09;1705805;81;21252;-60
2021/01/16 09:42:06;;;;;;;11.83;3.40;;;;;;;-12.50;47.42;100388.58;1746505;81;21237;-58
2021/01/16 09:44:52;;;;;;;14.73;5.72;;;;;;;-12.50;47.44;100386.05;1713737;81;21191;-58
2021/01/16 09:47:32;;;;;;;8.70;4.35;;;;;;;-12.42;47.57;100384.04;1743866;80;21287;-60
2021/01/16 09:50:06;;;;;;;9.68;4.15;;;;;;;-12.28;47.30;100384.64;1726218;81;21379;-59
2021/01/16 09:52:34;;;;;;;9.23;4.45;;;;;;;-12.15;47.16;100381.43;1710246;82;21517;-59
2021/01/16 09:55:01;;;;;;;8.93;3.52;;;;;;;-12.00;46.94;100387.95;1690538;81;21190;-59
2021/01/16 09:57:37;;;;;;;8.65;3.83;;;;;;;-11.89;47.03;100385.92;1713349;82;21232;-60
2021/01/16 10:00:17;;;;;;;10.50;5.62;;;;;;;-11.78;46.78;100389.01;1712555;81;21220;-60
2021/01/16 10:02:45;;;;;;;14.28;5.62;;;;;;;-11.64;45.92;100388.30;1657316;83;21227;-60
2021/01/16 10:05:33;;;;;;;12.33;6.37;;;;;;;-11.60;45.19;100386.22;1690416;83;21215;-60
2021/01/16 10:08:01;;;;;;;8.08;4.47;;;;;;;-11.64;45.33;100383.23;1712091;82;21125;-60
2021/01/16 10:10:46;;;;;;;9.20;4.37;;;;;;;-11.70;45.41;100381.88;1714508;82;21235;-58
2021/01/16 10:13:35;;;;;;;9.03;3.47;;;;;;;-11.74;45.34;100386.08;1712008;83;21230;-61
2021/01/16 10:16:11;;;;;;;11.25;4.85;;;;;;;-11.87;45.65;100383.81;1741557;81;22272;-58
2021/01/16 10:18:40;;;;;;;;;;;;;;;-11.94;45.96;100382.51;1738099;81;21594;-60
2021/01/16 10:21:09;;;;;;;10.93;4.00;;;;;;;-11.91;46.10;100388.47;1739929;81;20292;-59
2021/01/16 10:23:42;;;;;;;8.60;3.75;;;;;;;-11.98;45.86;100390.08;1706298;80;21188;-60
2021/01/16 10:26:17;;;;;;;8.25;3.95;;;;;;;-11.98;45.69;100375.28;1733828;81;21784;-59
2021/01/16 10:29:08;;;;;;;13.22;5.55;;;;;;;-11.97;46.61;100365.55;1736264;80;22257;-60
2021/01/16 10:31:36;;;;;;;10.10;3.80;;;;;;;-11.91;46.23;100363.09;1716491;82;21495;-60
2021/01/16 10:34:15;;;;;;;8.83;4.17;;;;;;;-11.87;46.32;100372.39;1742517;80;21156;-60
2021/01/16 10:36:43;;;;;;;8.93;3.87;;;;;;;-11.92;46.09;100363.91;1735268;81;21157;-60
2021/01/16 10:39:15;;;;;;;6.97;3.15;;;;;;;-11.89;46.17;100363.92;1752306;80;21164;-60
2021/01/16 10:41:45;;;;;;;9.40;4.97;;;;;;;-11.80;46.46;100362.77;1739797;81;21595;-60
2021/01/16 10:44:15;;;;;;;10.75;5.65;;;;;;;-11.67;45.97;100370.50;1714535;82;21534;-59
2021/01/16 10:46:45;;;;;;;13.28;4.80;;;;;;;-11.52;45.92;100364.73;1711652;82;21224;-59
2021/01/16 10:49:22;;;;;;;10.65;5.50;;;;;;;-11.44;46.01;100362.69;1714213;82;21203;-59
2021/01/16 10:52:01;;;;;;;12.93;5.85;;;;;;;-11.41;45.87;100357.64;1735733;82;21818;-60
2021/01/16 10:54:29;;;;;;;12.18;4.22;;;;;;;-11.37;45.96;100362.75;1734046;81;21209;-60
2021/01/16 10:57:07;;;;;;;8.43;3.92;;;;;;;-11.32;45.88;100354.33;1736472;80;21151;-61
2021/01/16 10:59:54;;;;;;;9.95;4.67;;;;;;;-11.22;45.69;100363.72;1790832;77;22477;-60
2021/01/16 11:02:37;;;;;;;10.53;4.55;;;;;;;-11.27;45.68;100368.34;1779134;80;21120;-60
2021/01/16 11:05:21;;;;;;;12.07;5.50;;;;;;;-11.18;45.85;100364.59;1775312;80;21418;-59
2021/01/16 11:07:49;;;;;;;14.70;5.35;;;;;;;-11.09;45.43;100358.33;1781169;79;21615;-59
2021/01/16 11:10:25;;;;;;;11.97;4.58;;;;;;;-10.88;45.45;100360.59;1781329;80;21190;-59
2021/01/16 11:12:54;;;;;;;12.68;5.58;;;;;;;-10.74;45.31;100359.00;1716985;82;21217;-59
2021/01/16 11:15:29;;;;;;;12.53;5.15;;;;;;;-10.66;44.61;100353.95;1716317;81;21208;-59
2021/01/16 11:17:59;;;;;;;;;;;;;;;-10.59;44.81;100350.62;1731682;81;21397;-59
2021/01/16 11:20:34;;;;;;;11.90;5.58;;;;;;;-10.61;44.60;100345.08;1727920;81;20298;-59
2021/01/16 11:23:30;;;;;;;11.00;5.55;;;;;;;-10.69;44.69;100347.17;1713194;81;21178;-59
2021/01/16 11:26:07;;;;;;;14.90;6.33;;;;;;;-10.73;44.69;100342.05;1719107;81;21193;-59
2021/01/16 11:28:55;;;;;;;13.40;5.55;;;;;;;-10.75;45.36;100340.77;1694462;81;21424;-60
2021/01/16 11:31:31;;;;;;;7.92;4.45;;;;;;;-10.76;45.17;100342.87;1720734;81;21274;-60
2021/01/16 11:34:18;;;;;;;9.58;4.87;;;;;;;-10.80;44.84;100337.77;1714349;82;21552;-60
2021/01/16 11:37:04;;;;;;;9.03;3.10;;;;;;;-10.77;45.08;100347.54;1723925;82;21162;-60
2021/01/16 11:39:50;;;;;;;10.20;4.47;;;;;;;-10.69;45.03;100342.48;1721515;82;21204;-58
2021/01/16 11:42:19;;;;;;;12.82;4.28;;;;;;;-10.68;45.07;100346.31;1674308;84;21129;-60
2021/01/16 11:44:59;;;;;;;10.78;4.40;;;;;;;-10.60;45.67;100350.18;1722224;82;21391;-60
2021/01/16 11:47:28;;;;;;;8.13;4.37;;;;;;;-10.49;44.92;100340.92;1703445;82;21174;-60
2021/01/16 11:49:59;;;;;;;11.15;3.70;;;;;;;-10.42;44.24;100336.72;1718727;81;21550;-60
2021/01/16 11:52:26;;;;;;;8.58;4.08;;;;;;;-10.39;44.37;100331.62;1687421;84;21560;-60
2021/01/16 11:54:56;;;;;;;9.48;4.45;;;;;;;-10.22;44.84;100327.88;1689979;82;21724;-59
2021/01/16 11:57:24;;;;;;;6.87;3.27;;;;;;;-10.03;44.04;100334.30;1674564;82;21275;-58
2021/01/16 11:59:51;;;;;;;9.20;3.30;;;;;;;-9.44;42.78;100326.34;1716339;81;21162;-58
2021/01/16 12:02:20;;;;;;;7.40;3.30;;;;;;;-9.72;43.66;100333.94;1745656;80;21225;-58
2021/01/16 12:04:47;;;;;;;6.17;2.77;;;;;;;-8.73;42.58;100321.19;1764013;79;21105;-58
2021/01/16 12:07:17;;;;;;;7.35;3.72;;;;;;;-7.78;40.53;100325.89;1682941;83;21480;-58
2021/01/16 12:09:49;;;;;;;11.65;4.25;;;;;;;-8.50;41.25;100325.80;1765861;79;21467;-59
2021/01/16 12:12:19;;;;;;;12.28;5.50;;;;;;;-8.74;41.15;100329.28;1761020;79;21246;-59
2021/01/16 12:14:48;;;;;;;10.82;5.28;;;;;;;-8.91;41.10;100325.45;1736163;80;21184;-60
2021/01/16 12:17:16;;;;;;;10.55;3.55;;;;;;;-9.10;41.18;100332.72;1748330;80;21187;-60
2021/01/16 12:19:44;;;;;;;10.13;3.77;;;;;;;-9.33;41.82;100346.29;1765611;79;21133;-60
2021/01/16 12:22:13;;;;;;;8.13;4.15;;;;;;;-9.47;42.22;100346.72;1763757;79;21332;-60
2021/01/16 12:24:40;;;;;;;9.18;4.80;;;;;;;-9.65;42.37;100348.80;1696541;82;21189;-60
2021/01/16 12:27:08;;;;;;;20.10;5.20;;;;;;;-9.88;42.84;100353.83;1763390;80;21177;-60
2021/01/16 12:29:44;;;;;;;35.13;4.53;;;;;;;-10.11;43.48;100352.91;1764695;80;21113;-60
2021/01/16 12:32:14;;;;;;;9.98;4.03;;;;;;;-10.24;43.83;100354.14;1695996;84;21195;-60
2021/01/16 12:34:47;;;;;;;10.18;4.20;;;;;;;-10.34;44.22;100352.87;1758895;80;21198;-58
2021/01/16 12:37:30;;;;;;;10.80;5.10;;;;;;;-10.38;44.33;100358.77;1754236;79;21133;-58
2021/01/16 12:39:59;;;;;;;10.00;3.30;;;;;;;-10.32;44.69;100363.90;1739465;80;21644;-59
2021/01/16 12:42:29;;;;;;;9.35;3.80;;;;;;;-10.19;43.92;100368.57;1772034;80;21157;-59
2021/01/16 12:47:48;;;;;;;12.93;5.62;;;;;;;-10.01;43.66;100369.51;1859849;74;27782;-59
2021/01/16 12:50:16;;;;;;;9.43;4.67;;;;;;;-9.81;43.39;100361.94;1854171;75;21154;-59
2021/01/16 12:52:48;;;;;;;7.10;2.98;;;;;;;-9.57;42.97;100365.80;1834349;76;21197;-59
2021/01/16 12:55:21;;;;;;;7.47;3.65;;;;;;;-9.51;42.22;100364.98;1816398;78;21163;-59
2021/01/16 12:57:52;;;;;;;7.35;3.62;;;;;;;-9.44;42.34;100368.38;1799583;78;21602;-60
2021/01/16 13:00:26;;;;;;;8.60;3.80;;;;;;;-8.73;41.26;100371.77;1780126;78;21187;-59
2021/01/16 13:03:03;;;;;;;13.22;3.35;;;;;;;-8.73;41.25;100367.95;1755921;78;21391;-60
2021/01/16 13:05:33;;;;;;;8.40;4.03;;;;;;;-8.77;40.75;100373.92;1780005;78;21208;-59
2021/01/16 13:08:08;;;;;;;11.18;5.20;;;;;;;-8.68;40.53;100370.50;1741728;80;21591;-59
2021/01/16 13:10:47;;;;;;;7.65;3.87;;;;;;;-8.88;40.65;100367.53;1800360;78;21182;-60
2021/01/16 13:13:15;;;;;;;11.85;5.10;;;;;;;-9.20;40.85;100378.58;1771975;80;21208;-60
2021/01/16 13:15:46;;;;;;;10.82;4.10;;;;;;;-9.56;41.41;100370.05;1787175;79;21575;-60
2021/01/16 13:18:20;;;;;;;6.00;2.60;;;;;;;-9.76;41.73;100383.17;1773415;80;21145;-60
2021/01/16 13:20:52;;;;;;;8.70;4.20;;;;;;;-9.99;42.10;100387.75;1789421;78;21186;-60
2021/01/16 13:23:45;;;;;;;7.12;3.55;;;;;;;-10.17;42.63;100384.72;1786557;79;21494;-60
2021/01/16 13:26:18;;;;;;;6.90;3.02;;;;;;;-10.28;42.81;100396.10;1818727;78;21167;-60
2021/01/16 13:28:48;;;;;;;7.92;3.55;;;;;;;-10.08;42.79;100389.00;1734443;80;21171;-61
2021/01/16 13:31:22;;;;;;;10.90;4.28;;;;;;;-9.82;42.72;100391.62;1776010;79;22069;-60
2021/01/16 13:33:52;;;;;;;6.90;2.83;;;;;;;-9.71;42.42;100394.22;1782870;79;21582;-60
2021/01/16 13:36:22;;;;;;;10.05;2.98;;;;;;;-9.58;41.98;100400.17;1766080;79;21583;-60
2021/01/16 13:38:54;;;;;;;8.83;3.70;;;;;;;-9.52;41.34;100401.05;1788072;78;21156;-60
2021/01/16 13:41:19;;;;;;;8.35;2.80;;;;;;;-9.62;41.51;100397.20;1767027;79;21211;-61